createdAt,value
2022-12-17T00:01:32.315Z,26.88
2022-12-17T00:03:53.994Z,25.98
2022-12-17T00:06:25.951Z,25.10
2022-12-17T00:08:46.354Z,24.98
2022-12-17T00:11:06.773Z,26.23
2022-12-17T00:13:37.209Z,26.50
2022-12-17T00:15:58.146Z,26.58
2022-12-17T00:18:22.037Z,28.73
2022-12-17T00:20:43.887Z,27.48
2022-12-17T00:23:04.328Z,26.88
2022-12-17T00:25:28.287Z,30.67
2022-12-17T00:27:48.695Z,29.08
2022-12-17T00:30:08.948Z,27.70
2022-12-17T00:32:29.392Z,37.72
2022-12-17T00:34:49.427Z,39.65
2022-12-17T00:37:10.776Z,29.42
2022-12-17T00:39:31.215Z,25.67
2022-12-17T00:41:51.382Z,30.70
2022-12-17T00:44:11.532Z,24.60
2022-12-17T00:46:32.130Z,26.52
2022-12-17T00:48:52.591Z,29.60
2022-12-17T00:51:14.063Z,27.60
2022-12-17T00:53:36.434Z,26.35
2022-12-17T00:55:58.079Z,36.85
2022-12-17T00:58:18.240Z,29.60
2022-12-17T01:00:38.651Z,30.27
2022-12-17T01:02:59.257Z,23.88
2022-12-17T01:05:19.366Z,31.83
2022-12-17T01:07:39.592Z,26.55
2022-12-17T01:10:01.318Z,31.42
2022-12-17T01:12:21.917Z,27.55
2022-12-17T01:14:42.375Z,30.05
2022-12-17T01:17:02.661Z,27.58
2022-12-17T01:19:23.095Z,26.25
2022-12-17T01:21:43.413Z,31.67
2022-12-17T01:24:04.294Z,32.03
2022-12-17T01:26:26.232Z,37.28
2022-12-17T01:28:46.553Z,28.10
2022-12-17T01:31:06.608Z,33.75
2022-12-17T01:33:28.974Z,36.00
2022-12-17T01:35:49.021Z,31.02
2022-12-17T01:38:09.511Z,38.65
2022-12-17T01:40:30.107Z,26.63
2022-12-17T01:42:57.930Z,27.25
2022-12-17T01:45:18.258Z,25.63
2022-12-17T01:47:38.881Z,27.35
2022-12-17T01:50:04.712Z,31.15
2022-12-17T01:52:25.355Z,25.65
2022-12-17T01:54:45.499Z,30.52
2022-12-17T01:57:06.373Z,30.15
2022-12-17T01:59:28.784Z,30.70
2022-12-17T02:01:49.309Z,33.20
2022-12-17T02:04:09.572Z,31.55
2022-12-17T02:06:34.449Z,30.40
2022-12-17T02:09:02.119Z,31.40
2022-12-17T02:11:25.966Z,30.95
2022-12-17T02:13:51.368Z,34.08
2022-12-17T02:16:17.261Z,31.42
2022-12-17T02:18:43.746Z,27.38
2022-12-17T02:21:07.191Z,33.22
2022-12-17T02:23:37.016Z,31.45
2022-12-17T02:26:08.305Z,33.63
2022-12-17T02:28:30.525Z,33.72
2022-12-17T02:30:50.784Z,36.15
2022-12-17T02:33:12.560Z,32.08
2022-12-17T02:35:35.365Z,35.42
2022-12-17T02:37:55.736Z,26.83
2022-12-17T02:40:16.643Z,26.90
2022-12-17T02:42:38.146Z,30.60
2022-12-17T02:45:01.440Z,27.73
2022-12-17T02:47:27.682Z,29.45
2022-12-17T02:49:47.920Z,30.10
2022-12-17T02:52:08.804Z,28.58
2022-12-17T02:54:29.306Z,27.75
2022-12-17T02:56:49.723Z,35.05
2022-12-17T02:59:10.090Z,29.48
2022-12-17T03:01:31.997Z,27.90
2022-12-17T03:03:52.466Z,29.33
2022-12-17T03:06:12.980Z,28.10
2022-12-17T03:08:33.533Z,32.85
2022-12-17T03:10:54.003Z,28.42
2022-12-17T03:13:14.599Z,30.55
2022-12-17T03:15:34.972Z,30.58
2022-12-17T03:18:05.159Z,32.83
2022-12-17T03:20:26.699Z,33.10
2022-12-17T03:22:47.509Z,32.90
2022-12-17T03:25:08.050Z,35.38
2022-12-17T03:27:30.760Z,29.17
2022-12-17T03:29:51.165Z,30.45
2022-12-17T03:32:11.325Z,30.77
2022-12-17T03:34:33.350Z,33.70
2022-12-17T03:37:08.002Z,33.25
2022-12-17T03:39:28.599Z,37.15
2022-12-17T03:41:48.622Z,33.80
2022-12-17T03:44:17.302Z,39.47
2022-12-17T03:46:37.805Z,34.67
2022-12-17T03:48:58.310Z,39.17
2022-12-17T03:51:25.893Z,40.88
2022-12-17T03:53:45.983Z,40.13
2022-12-17T03:56:06.297Z,35.95
2022-12-17T03:58:26.800Z,44.50
2022-12-17T04:00:47.240Z,38.15
2022-12-17T04:03:07.637Z,49.85
2022-12-17T04:05:28.183Z,53.88
2022-12-17T04:07:50.132Z,55.25
2022-12-17T04:10:10.298Z,42.80
2022-12-17T04:12:45.232Z,41.45
2022-12-17T04:15:05.583Z,45.35
2022-12-17T04:17:27.285Z,46.53
2022-12-17T04:19:47.618Z,48.35
2022-12-17T04:22:09.703Z,41.63
2022-12-17T04:24:31.221Z,44.53
2022-12-17T04:26:51.259Z,64.05
2022-12-17T04:29:13.636Z,48.90
2022-12-17T04:31:34.201Z,42.38
2022-12-17T04:33:54.815Z,45.08
2022-12-17T04:36:16.184Z,52.88
2022-12-17T04:38:36.298Z,46.33
2022-12-17T04:40:57.941Z,56.50
2022-12-17T04:43:24.839Z,49.60
2022-12-17T04:45:46.250Z,51.85
2022-12-17T04:48:06.566Z,45.05
2022-12-17T04:50:27.121Z,50.15
2022-12-17T04:52:52.826Z,43.22
2022-12-17T04:55:12.807Z,46.45
2022-12-17T04:57:34.507Z,46.15
2022-12-17T04:59:55.258Z,41.00
2022-12-17T05:02:15.644Z,44.03
2022-12-17T05:04:35.875Z,47.80
2022-12-17T05:06:56.056Z,47.17
2022-12-17T05:09:16.380Z,49.72
2022-12-17T05:11:36.443Z,42.03
2022-12-17T05:13:57.845Z,46.42
2022-12-17T05:16:18.337Z,40.05
2022-12-17T05:18:38.850Z,44.70
2022-12-17T05:20:59.101Z,62.97
2022-12-17T05:23:23.876Z,42.00
2022-12-17T05:25:44.019Z,49.22
2022-12-17T05:28:04.712Z,44.35
2022-12-17T05:30:27.462Z,72.03
2022-12-17T05:32:47.934Z,46.95
2022-12-17T05:35:08.109Z,63.78
2022-12-17T05:37:30.772Z,74.10
2022-12-17T05:39:51.179Z,86.93
2022-12-17T05:42:11.685Z,63.13
2022-12-17T05:44:32.207Z,59.47
2022-12-17T05:46:54.013Z,153.35
2022-12-17T05:49:14.388Z,90.50
2022-12-17T05:51:38.595Z,93.07
2022-12-17T05:53:59.595Z,75.88
2022-12-17T05:56:19.031Z,99.03
2022-12-17T05:58:39.526Z,66.10
2022-12-17T06:01:00.081Z,74.80
2022-12-17T06:03:23.149Z,64.57
2022-12-17T06:05:43.442Z,115.18
2022-12-17T06:08:03.824Z,55.15
2022-12-17T06:10:24.843Z,54.55
2022-12-17T06:12:45.514Z,71.93
2022-12-17T06:15:06.127Z,61.42
2022-12-17T06:17:26.561Z,63.70
2022-12-17T06:19:48.445Z,78.18
2022-12-17T06:22:21.553Z,73.35
2022-12-17T06:24:45.933Z,104.93
2022-12-17T06:27:08.850Z,57.10
2022-12-17T06:29:29.279Z,66.03
2022-12-17T06:31:49.760Z,71.40
2022-12-17T06:34:09.894Z,118.57
2022-12-17T06:36:31.687Z,46.78
2022-12-17T06:38:52.053Z,74.18
2022-12-17T06:41:12.600Z,27.58
2022-12-17T06:43:33.228Z,57.60
2022-12-17T06:45:53.541Z,58.65
2022-12-17T06:48:20.354Z,42.53
2022-12-17T06:50:43.031Z,96.65
2022-12-17T06:53:04.819Z,40.78
2022-12-17T06:55:25.517Z,58.15
2022-12-17T06:57:50.191Z,27.55
2022-12-17T07:00:10.840Z,78.13
2022-12-17T07:02:31.436Z,47.85
2022-12-17T07:04:52.037Z,69.97
2022-12-17T07:07:12.426Z,17.65
2022-12-17T07:09:34.133Z,76.35
2022-12-17T07:11:54.486Z,55.58
2022-12-17T07:14:15.158Z,78.30
2022-12-17T07:16:35.732Z,76.57
2022-12-17T07:18:56.412Z,57.65
2022-12-17T07:21:16.882Z,66.70
2022-12-17T07:23:37.509Z,58.28
2022-12-17T07:26:00.020Z,61.72
2022-12-17T07:28:20.181Z,46.53
2022-12-17T07:30:40.661Z,52.22
2022-12-17T07:33:00.745Z,56.00
2022-12-17T07:35:32.677Z,54.75
2022-12-17T07:37:52.749Z,64.43
2022-12-17T07:40:13.120Z,57.08
2022-12-17T07:42:34.592Z,28.33
2022-12-17T07:44:55.139Z,38.08
2022-12-17T07:47:15.395Z,47.00
2022-12-17T07:49:35.847Z,48.45
2022-12-17T07:51:56.477Z,107.18
2022-12-17T07:54:16.915Z,56.88
2022-12-17T07:56:34.000Z,41.38
2022-12-17T07:58:55.536Z,24.08
2022-12-17T08:01:18.171Z,80.10
2022-12-17T08:03:38.867Z,79.93
2022-12-17T08:05:59.369Z,36.85
2022-12-17T08:08:26.364Z,43.95
2022-12-17T08:10:46.550Z,55.90
2022-12-17T08:13:14.421Z,50.67
2022-12-17T08:15:36.180Z,34.40
2022-12-17T08:17:56.654Z,60.83
2022-12-17T08:20:16.958Z,48.13
2022-12-17T08:22:37.512Z,72.63
2022-12-17T08:24:57.646Z,71.10
2022-12-17T08:27:18.262Z,53.80
2022-12-17T08:29:38.819Z,61.35
2022-12-17T08:32:00.463Z,48.55
2022-12-17T08:34:20.799Z,58.53
2022-12-17T08:36:41.340Z,68.75
2022-12-17T08:39:01.735Z,60.58
2022-12-17T08:41:22.676Z,54.58
2022-12-17T08:43:43.174Z,57.05
2022-12-17T08:46:06.097Z,51.60
2022-12-17T08:48:28.107Z,52.78
2022-12-17T08:50:59.921Z,34.33
2022-12-17T08:53:22.294Z,44.33
2022-12-17T08:55:42.769Z,46.90
2022-12-17T08:58:11.538Z,51.90
2022-12-17T09:00:32.787Z,52.47
2022-12-17T09:02:49.435Z,50.53
2022-12-17T09:05:11.312Z,40.78
2022-12-17T09:07:31.608Z,54.53
2022-12-17T09:09:52.011Z,45.33
2022-12-17T09:12:12.364Z,40.17
2022-12-17T09:14:32.772Z,37.85
2022-12-17T09:16:53.407Z,44.22
2022-12-17T09:19:13.967Z,49.15
2022-12-17T09:21:35.610Z,48.30
2022-12-17T09:23:56.079Z,42.53
2022-12-17T09:26:16.527Z,48.28
2022-12-17T09:28:36.908Z,40.90
2022-12-17T09:30:57.090Z,48.92
2022-12-17T09:33:17.236Z,38.45
2022-12-17T09:35:37.769Z,52.08
2022-12-17T09:37:59.539Z,44.33
2022-12-17T09:40:19.955Z,51.08
2022-12-17T09:42:49.945Z,29.48
2022-12-17T09:47:48.525Z,49.10
2022-12-17T09:50:09.056Z,34.15
2022-12-17T09:52:39.009Z,42.42
2022-12-17T09:55:04.483Z,45.92
2022-12-17T09:57:29.414Z,43.42
2022-12-17T09:59:53.323Z,38.22
2022-12-17T10:02:10.316Z,42.25
2022-12-17T10:04:35.407Z,48.30
2022-12-17T10:06:55.676Z,55.90
2022-12-17T10:09:19.400Z,44.58
2022-12-17T10:11:43.066Z,41.67
2022-12-17T10:14:03.586Z,54.55
2022-12-17T10:16:38.655Z,41.03
2022-12-17T10:18:59.208Z,41.78
2022-12-17T10:21:21.583Z,35.65
2022-12-17T10:23:43.699Z,28.67
2022-12-17T10:26:10.230Z,50.72
2022-12-17T10:28:33.337Z,43.13
2022-12-17T10:30:54.835Z,30.90
2022-12-17T10:33:14.990Z,42.92
2022-12-17T10:35:38.611Z,44.60
2022-12-17T10:37:59.606Z,47.72
2022-12-17T10:40:21.440Z,38.10
2022-12-17T10:42:44.475Z,43.05
2022-12-17T10:45:06.241Z,39.90
2022-12-17T10:47:30.088Z,37.25
2022-12-17T10:49:50.809Z,26.20
2022-12-17T10:52:17.133Z,33.55
2022-12-17T10:54:48.727Z,34.33
2022-12-17T10:57:12.695Z,39.78
2022-12-17T10:59:46.990Z,39.50
2022-12-17T11:02:16.642Z,35.13
2022-12-17T11:04:43.173Z,45.58
2022-12-17T11:07:06.072Z,50.40
2022-12-17T11:09:35.491Z,40.72
2022-12-17T11:11:56.428Z,42.08
2022-12-17T11:14:22.480Z,41.72
2022-12-17T11:16:45.786Z,39.90
2022-12-17T11:19:14.155Z,39.03
2022-12-17T11:21:39.593Z,36.65
2022-12-17T11:24:03.231Z,28.20
2022-12-17T11:26:28.762Z,43.45
2022-12-17T11:28:53.347Z,35.08
2022-12-17T11:31:24.627Z,38.80
2022-12-17T11:33:51.108Z,46.28
2022-12-17T11:36:23.013Z,37.20
2022-12-17T11:38:57.381Z,36.97
2022-12-17T11:41:25.857Z,45.85
2022-12-17T11:43:53.038Z,44.50
2022-12-17T11:46:21.751Z,43.15
2022-12-17T11:48:52.523Z,42.53
2022-12-17T11:51:21.292Z,40.80
2022-12-17T11:53:59.925Z,42.60
2022-12-17T11:56:30.892Z,47.83
2022-12-17T12:01:25.094Z,28.20
2022-12-17T12:03:55.147Z,50.88
2022-12-17T12:06:18.764Z,46.45
2022-12-17T12:08:43.335Z,53.85
2022-12-17T12:11:15.001Z,45.28
2022-12-17T12:13:45.814Z,25.75
2022-12-17T12:16:18.745Z,39.15
2022-12-17T12:18:49.383Z,49.05
2022-12-17T12:21:27.563Z,50.08
2022-12-17T12:24:01.672Z,52.05
2022-12-17T12:26:30.020Z,59.97
2022-12-17T12:28:55.794Z,48.55
2022-12-17T12:31:26.867Z,41.28
2022-12-17T12:33:59.256Z,31.05
2022-12-17T12:36:23.971Z,47.85
2022-12-17T12:38:50.224Z,52.78
2022-12-17T12:41:18.375Z,54.42
2022-12-17T12:43:41.536Z,39.95
2022-12-17T12:46:09.610Z,40.75
2022-12-17T12:48:43.975Z,44.80
2022-12-17T12:51:09.341Z,62.90
2022-12-17T12:53:31.748Z,72.50
2022-12-17T12:55:57.334Z,62.30
2022-12-17T12:58:19.342Z,76.07
2022-12-17T13:00:42.568Z,56.58
2022-12-17T13:03:03.588Z,55.85
2022-12-17T13:05:35.903Z,43.10
2022-12-17T13:07:38.603Z,47.60
2022-12-17T13:09:50.343Z,54.30
2022-12-17T13:11:57.952Z,52.35
2022-12-17T13:14:07.223Z,55.95
2022-12-17T13:16:31.142Z,54.58
2022-12-17T13:18:36.263Z,45.55
2022-12-17T13:20:39.193Z,52.60
2022-12-17T13:22:51.384Z,60.72
2022-12-17T13:24:57.802Z,51.80
2022-12-17T13:27:03.842Z,52.38
2022-12-17T13:29:22.632Z,47.20
2022-12-17T13:31:28.128Z,54.22
2022-12-17T13:33:41.337Z,56.70
2022-12-17T13:35:55.424Z,53.22
2022-12-17T13:38:05.909Z,57.88
2022-12-17T13:40:26.603Z,53.15
2022-12-17T13:42:31.562Z,54.33
2022-12-17T13:44:41.415Z,57.33
2022-12-17T13:46:47.691Z,50.40
2022-12-17T13:48:56.388Z,35.92
2022-12-17T13:51:01.955Z,53.45
2022-12-17T13:53:11.589Z,50.17
2022-12-17T13:55:21.141Z,60.25
2022-12-17T13:57:25.821Z,61.85
2022-12-17T13:59:29.877Z,62.50
2022-12-17T14:01:33.434Z,56.15
2022-12-17T14:04:04.237Z,69.03
2022-12-17T14:05:59.970Z,68.30
2022-12-17T14:08:05.320Z,81.60
2022-12-17T14:10:17.504Z,70.47
2022-12-17T14:12:23.967Z,64.20
2022-12-17T14:14:32.488Z,68.80
2022-12-17T14:16:35.401Z,63.15
2022-12-17T14:18:41.694Z,58.65
2022-12-17T14:20:44.879Z,56.70
2022-12-17T14:22:51.825Z,62.65
2022-12-17T14:27:01.039Z,52.90
2022-12-17T14:29:14.041Z,82.95
2022-12-17T14:31:29.186Z,67.28
2022-12-17T14:33:33.572Z,56.90
2022-12-17T14:35:40.794Z,71.38
2022-12-17T14:37:47.964Z,61.45
2022-12-17T14:42:24.105Z,53.88
2022-12-17T14:44:30.532Z,60.67
2022-12-17T14:46:35.916Z,64.22
2022-12-17T14:48:56.327Z,68.78
2022-12-17T14:50:59.349Z,43.20
2022-12-17T14:53:07.057Z,50.05
2022-12-17T14:55:30.420Z,52.38
2022-12-17T14:57:33.471Z,80.10
2022-12-17T14:59:39.388Z,73.45
2022-12-17T15:01:43.802Z,65.78
2022-12-17T15:03:47.453Z,73.95
2022-12-17T15:05:53.691Z,66.00
2022-12-17T15:07:57.071Z,87.45
2022-12-17T15:10:10.053Z,78.57
2022-12-17T15:12:12.886Z,76.63
2022-12-17T15:14:16.010Z,74.32
2022-12-17T15:16:21.368Z,93.05
2022-12-17T15:18:24.215Z,71.85
2022-12-17T15:20:27.034Z,63.97
2022-12-17T15:22:29.779Z,81.60
2022-12-17T15:24:32.603Z,75.25
2022-12-17T15:26:35.389Z,59.33
2022-12-17T15:28:38.510Z,83.85
2022-12-17T15:30:41.696Z,76.13
2022-12-17T15:32:46.393Z,82.65
2022-12-17T15:34:50.416Z,89.55
2022-12-17T15:36:53.280Z,95.80
2022-12-17T15:38:56.367Z,130.68
2022-12-17T15:41:01.295Z,90.30
2022-12-17T15:43:11.831Z,85.65
2022-12-17T15:45:14.670Z,82.13
2022-12-17T15:47:17.423Z,86.50
2022-12-17T15:49:21.934Z,80.90
2022-12-17T15:51:24.731Z,77.63
2022-12-17T15:53:27.652Z,74.15
2022-12-17T15:55:31.005Z,99.97
2022-12-17T15:57:33.897Z,71.05
2022-12-17T15:59:38.344Z,88.53
2022-12-17T16:01:41.313Z,69.82
2022-12-17T16:03:44.450Z,81.75
2022-12-17T16:05:48.899Z,76.43
2022-12-17T16:07:52.355Z,72.88
2022-12-17T16:09:57.930Z,73.32
2022-12-17T16:12:03.130Z,72.47
2022-12-17T16:14:06.056Z,66.85
2022-12-17T16:16:10.136Z,66.80
2022-12-17T16:18:13.202Z,73.47
2022-12-17T16:20:15.951Z,80.90
2022-12-17T16:22:20.083Z,73.90
2022-12-17T16:24:22.984Z,77.03
2022-12-17T16:26:25.805Z,78.05
2022-12-17T16:28:29.894Z,75.40
2022-12-17T16:30:32.628Z,69.03
2022-12-17T16:32:36.761Z,73.30
2022-12-17T16:34:39.823Z,68.55
2022-12-17T16:36:43.158Z,67.90
2022-12-17T16:38:49.546Z,73.95
2022-12-17T16:40:56.333Z,69.47
2022-12-17T16:42:59.002Z,73.35
2022-12-17T16:45:01.824Z,94.70
2022-12-17T16:47:04.917Z,72.50
2022-12-17T16:49:09.668Z,65.35
2022-12-17T16:51:21.067Z,78.10
2022-12-17T16:53:26.847Z,76.93
2022-12-17T16:55:30.986Z,76.97
2022-12-17T16:57:33.705Z,90.63
2022-12-17T16:59:36.450Z,58.90
2022-12-17T17:01:40.875Z,61.67
2022-12-17T17:03:43.965Z,127.35
2022-12-17T17:05:46.680Z,104.70
2022-12-17T17:07:49.400Z,112.28
2022-12-17T17:09:52.224Z,131.07
2022-12-17T17:11:58.617Z,160.45
2022-12-17T17:14:01.783Z,178.65
2022-12-17T17:16:05.413Z,170.70
2022-12-17T17:18:08.227Z,190.80
2022-12-17T17:20:12.334Z,120.78
2022-12-17T17:22:15.067Z,118.35
2022-12-17T17:24:22.087Z,170.40
2022-12-17T17:26:26.213Z,115.82
2022-12-17T17:28:30.334Z,145.88
2022-12-17T17:30:33.153Z,138.80
2022-12-17T17:32:36.020Z,157.13
2022-12-17T17:34:39.076Z,128.90
2022-12-17T17:36:42.727Z,111.20
2022-12-17T17:38:46.216Z,112.05
2022-12-17T17:40:49.030Z,110.20
2022-12-17T17:42:53.033Z,120.90
2022-12-17T17:44:57.404Z,91.60
2022-12-17T17:47:00.566Z,86.10
2022-12-17T17:49:05.132Z,124.72
2022-12-17T17:51:10.618Z,156.32
2022-12-17T17:53:13.262Z,85.68
2022-12-17T17:55:16.332Z,118.60
2022-12-17T17:57:19.030Z,107.10
2022-12-17T17:59:27.772Z,95.57
2022-12-17T18:01:39.276Z,93.07
2022-12-17T18:03:42.678Z,93.65
2022-12-17T18:05:45.312Z,106.15
2022-12-17T18:07:48.011Z,137.65
2022-12-17T18:09:50.689Z,107.13
2022-12-17T18:11:53.398Z,105.90
2022-12-17T18:13:56.061Z,88.43
2022-12-17T18:16:01.754Z,97.00
2022-12-17T18:18:12.644Z,100.22
2022-12-17T18:20:17.381Z,95.70
2022-12-17T18:22:20.063Z,91.65
2022-12-17T18:24:24.214Z,80.90
2022-12-17T18:26:28.376Z,78.75
2022-12-17T18:28:31.036Z,96.97
2022-12-17T18:30:33.724Z,98.07
2022-12-17T18:32:36.654Z,98.28
2022-12-17T18:34:40.828Z,98.38
2022-12-17T18:36:45.112Z,88.25
2022-12-17T18:38:48.347Z,77.60
2022-12-17T18:40:51.036Z,102.63
2022-12-17T18:43:25.948Z,107.38
2022-12-17T18:45:28.600Z,107.07
2022-12-17T18:47:31.328Z,103.57
2022-12-17T18:49:33.986Z,83.30
2022-12-17T18:51:39.744Z,94.35
2022-12-17T18:53:42.375Z,78.07
2022-12-17T18:55:45.083Z,90.55
2022-12-17T18:57:47.775Z,76.72
2022-12-17T18:59:50.422Z,76.28
2022-12-17T19:01:54.464Z,90.53
2022-12-17T19:03:58.121Z,76.70
2022-12-17T19:06:05.683Z,84.32
2022-12-17T19:08:09.644Z,84.80
2022-12-17T19:10:12.343Z,85.13
2022-12-17T19:12:15.097Z,84.65
2022-12-17T19:14:18.186Z,89.00
2022-12-17T19:16:22.761Z,69.70
2022-12-17T19:18:25.482Z,74.15
2022-12-17T19:20:28.271Z,75.95
2022-12-17T19:22:31.007Z,84.72
2022-12-17T19:24:35.012Z,79.30
2022-12-17T19:26:37.692Z,84.50
2022-12-17T19:28:41.831Z,53.42
2022-12-17T19:30:44.575Z,86.60
2022-12-17T19:32:47.299Z,58.45
2022-12-17T19:34:49.968Z,99.00
2022-12-17T19:36:52.941Z,66.82
2022-12-17T19:38:57.017Z,72.93
2022-12-17T19:41:05.561Z,60.72
2022-12-17T19:43:08.175Z,81.03
2022-12-17T19:45:11.484Z,87.40
2022-12-17T19:47:14.099Z,61.97
2022-12-17T19:49:17.767Z,86.65
2022-12-17T19:51:23.494Z,70.88
2022-12-17T19:53:27.286Z,69.95
2022-12-17T19:55:29.934Z,93.35
2022-12-17T19:57:35.166Z,89.68
2022-12-17T19:59:37.861Z,94.18
2022-12-17T20:01:42.654Z,67.00
2022-12-17T20:03:46.651Z,30.65
2022-12-17T20:05:49.643Z,94.00
2022-12-17T20:07:52.335Z,102.10
2022-12-17T20:09:55.100Z,106.80
2022-12-17T20:11:57.761Z,95.68
2022-12-17T20:14:03.653Z,94.80
2022-12-17T20:16:07.149Z,82.80
2022-12-17T20:18:09.805Z,103.10
2022-12-17T20:20:13.097Z,104.95
2022-12-17T20:22:15.843Z,78.40
2022-12-17T20:24:19.132Z,75.85
2022-12-17T20:26:22.397Z,55.60
2022-12-17T20:28:25.107Z,87.70
2022-12-17T20:30:29.094Z,73.75
2022-12-17T20:32:34.772Z,63.35
2022-12-17T20:34:37.381Z,75.05
2022-12-17T20:36:40.593Z,52.83
2022-12-17T20:38:45.097Z,58.35
2022-12-17T20:40:47.727Z,82.03
2022-12-17T20:42:53.107Z,92.88
2022-12-17T20:44:55.721Z,80.32
2022-12-17T20:47:01.233Z,83.82
2022-12-17T20:49:05.342Z,68.00
2022-12-17T20:51:09.659Z,75.07
2022-12-17T20:53:12.398Z,75.93
2022-12-17T20:55:15.160Z,64.28
2022-12-17T20:57:17.853Z,89.90
2022-12-17T20:59:20.724Z,76.82
2022-12-17T21:01:25.472Z,66.18
2022-12-17T21:03:29.707Z,70.90
2022-12-17T21:05:35.567Z,75.78
2022-12-17T21:07:38.313Z,60.25
2022-12-17T21:09:41.024Z,77.32
2022-12-17T21:11:43.847Z,68.40
2022-12-17T21:13:46.679Z,83.50
2022-12-17T21:15:50.635Z,81.95
2022-12-17T21:17:53.380Z,106.78
2022-12-17T21:20:01.499Z,90.60
2022-12-17T21:22:08.643Z,68.00
2022-12-17T21:24:13.233Z,78.10
2022-12-17T21:26:18.939Z,72.20
2022-12-17T21:28:24.551Z,82.50
2022-12-17T21:30:27.319Z,69.20
2022-12-17T21:32:33.661Z,72.50
2022-12-17T21:34:36.719Z,65.88
2022-12-17T21:36:42.148Z,71.13
2022-12-17T21:38:45.497Z,68.30
2022-12-17T21:40:48.272Z,61.58
2022-12-17T21:43:02.888Z,61.97
2022-12-17T21:45:06.275Z,70.75
2022-12-17T21:47:09.427Z,63.45
2022-12-17T21:49:12.446Z,65.15
2022-12-17T21:51:15.718Z,66.07
2022-12-17T21:53:20.149Z,59.65
2022-12-17T21:55:23.171Z,66.40
2022-12-17T21:57:25.807Z,42.33
2022-12-17T21:59:28.554Z,54.38
2022-12-17T22:01:33.304Z,57.00
2022-12-17T22:03:36.076Z,55.85
2022-12-17T22:05:39.307Z,59.88
2022-12-17T22:07:46.328Z,68.40
2022-12-17T22:10:08.533Z,56.35
2022-12-17T22:12:28.843Z,58.95
2022-12-17T22:14:31.618Z,50.55
2022-12-17T22:16:36.503Z,57.90
2022-12-17T22:18:40.199Z,57.30
2022-12-17T22:20:43.110Z,56.10
2022-12-17T22:22:46.170Z,51.25
2022-12-17T22:24:48.994Z,62.63
2022-12-17T22:26:59.580Z,51.45
2022-12-17T22:29:03.126Z,61.50
2022-12-17T22:31:24.155Z,63.13
2022-12-17T22:34:05.423Z,58.00
2022-12-17T22:37:24.165Z,61.85
2022-12-17T22:42:16.780Z,53.97
2022-12-17T22:44:36.460Z,49.65
2022-12-17T22:44:38.629Z,56.33
2022-12-17T22:45:43.647Z,45.13
2022-12-17T22:47:46.401Z,51.28
2022-12-17T22:49:49.138Z,50.55
2022-12-17T22:51:51.924Z,53.65
2022-12-17T22:53:55.265Z,62.22
2022-12-17T22:56:13.383Z,49.33
2022-12-17T22:58:22.705Z,60.47
2022-12-17T23:00:27.689Z,54.85
2022-12-17T23:02:30.494Z,58.35
2022-12-17T23:04:33.216Z,51.00
2022-12-17T23:06:35.879Z,61.63
2022-12-17T23:08:38.980Z,54.78
2022-12-17T23:10:41.713Z,53.42
2022-12-17T23:12:54.321Z,56.90
2022-12-17T23:14:58.373Z,59.13
2022-12-17T23:17:01.036Z,49.47
2022-12-17T23:19:04.879Z,60.40
2022-12-17T23:21:08.829Z,59.95
2022-12-17T23:23:11.560Z,53.40
2022-12-17T23:25:15.542Z,53.30
2022-12-17T23:27:18.269Z,62.00
2022-12-17T23:29:20.988Z,60.72
2022-12-17T23:31:27.189Z,72.63
2022-12-17T23:33:29.919Z,60.15
2022-12-17T23:35:32.831Z,63.28
2022-12-17T23:37:39.837Z,54.80
2022-12-17T23:39:42.866Z,60.25
2022-12-17T23:41:45.597Z,54.25
2022-12-17T23:43:49.042Z,58.65
2022-12-17T23:45:51.665Z,57.95
2022-12-17T23:47:57.554Z,66.25
2022-12-17T23:50:00.224Z,62.20
2022-12-17T23:52:03.004Z,55.25
2022-12-17T23:54:05.950Z,42.75
2022-12-17T23:56:11.588Z,44.30
2022-12-17T23:58:14.502Z,67.13
